sensor_id;sensor_type;location;lat;lon;timestamp;noise_LAeq;noise_LA_min;noise_LA_max;noise_LA01;noise_LA95
60031;Laerm;45901;47.600;9.890;2023-08-06T00:00:00;40.75;38.52;48.51;;
60031;Laerm;45901;47.600;9.890;2023-08-06T00:02:27;40.55;38.37;42.76;;
60031;Laerm;45901;47.600;9.890;2023-08-06T00:04:54;40.51;37.32;42.29;;
60031;Laerm;45901;47.600;9.890;2023-08-06T00:07:21;40.57;38.37;42.65;;
60031;Laerm;45901;47.600;9.890;2023-08-06T00:09:48;40.50;38.05;42.22;;
60031;Laerm;45901;47.600;9.890;2023-08-06T00:12:16;40.52;38.21;42.53;;
60031;Laerm;45901;47.600;9.890;2023-08-06T00:14:43;40.48;38.05;44.83;;
60031;Laerm;45901;47.600;9.890;2023-08-06T00:17:10;40.44;38.05;42.13;;
60031;Laerm;45901;47.600;9.890;2023-08-06T00:19:37;40.46;38.37;51.53;;
60031;Laerm;45901;47.600;9.890;2023-08-06T00:22:04;40.25;38.05;41.89;;
60031;Laerm;45901;47.600;9.890;2023-08-06T00:24:31;40.49;38.05;49.00;;
60031;Laerm;45901;47.600;9.890;2023-08-06T00:26:58;40.25;37.70;42.47;;
60031;Laerm;45901;47.600;9.890;2023-08-06T00:29:27;40.31;37.70;45.69;;
60031;Laerm;45901;47.600;9.890;2023-08-06T00:31:54;40.61;38.21;42.47;;
60031;Laerm;45901;47.600;9.890;2023-08-06T00:34:21;40.34;38.21;42.16;;
60031;Laerm;45901;47.600;9.890;2023-08-06T00:36:48;40.31;37.88;41.96;;
60031;Laerm;45901;47.600;9.890;2023-08-06T00:39:14;40.17;37.88;42.03;;
60031;Laerm;45901;47.600;9.890;2023-08-06T00:41:41;40.04;37.52;41.89;;
60031;Laerm;45901;47.600;9.890;2023-08-06T00:44:08;40.13;37.32;42.71;;
60031;Laerm;45901;47.600;9.890;2023-08-06T00:46:37;40.45;37.70;46.97;;
60031;Laerm;45901;47.600;9.890;2023-08-06T00:49:04;40.31;37.70;42.29;;
60031;Laerm;45901;47.600;9.890;2023-08-06T00:51:32;40.26;37.70;42.03;;
60031;Laerm;45901;47.600;9.890;2023-08-06T00:53:59;40.20;38.05;41.96;;
60031;Laerm;45901;47.600;9.890;2023-08-06T00:56:27;40.16;37.88;42.19;;
60031;Laerm;45901;47.600;9.890;2023-08-06T00:58:54;40.36;37.70;48.18;;
60031;Laerm;45901;47.600;9.890;2023-08-06T01:01:21;40.43;37.88;46.80;;
60031;Laerm;45901;47.600;9.890;2023-08-06T01:03:50;40.14;37.88;41.89;;
60031;Laerm;45901;47.600;9.890;2023-08-06T01:06:24;40.18;37.32;43.81;;
60031;Laerm;45901;47.600;9.890;2023-08-06T01:09:04;40.13;37.70;41.68;;
60031;Laerm;45901;47.600;9.890;2023-08-06T01:11:47;40.20;37.70;42.53;;
60031;Laerm;45901;47.600;9.890;2023-08-06T01:14:23;40.26;37.12;44.58;;
60031;Laerm;45901;47.600;9.890;2023-08-06T01:16:55;40.21;37.88;42.03;;
60031;Laerm;45901;47.600;9.890;2023-08-06T01:19:24;40.14;37.70;41.96;;
60031;Laerm;45901;47.600;9.890;2023-08-06T01:21:52;40.07;37.52;42.00;;
60031;Laerm;45901;47.600;9.890;2023-08-06T01:24:20;40.05;37.88;41.82;;
60031;Laerm;45901;47.600;9.890;2023-08-06T01:26:55;40.06;37.52;43.00;;
60031;Laerm;45901;47.600;9.890;2023-08-06T01:29:31;40.40;37.70;50.75;;
60031;Laerm;45901;47.600;9.890;2023-08-06T01:32:01;40.02;37.32;41.89;;
60031;Laerm;45901;47.600;9.890;2023-08-06T01:34:32;39.98;37.32;41.75;;
60031;Laerm;45901;47.600;9.890;2023-08-06T01:37:02;39.96;37.32;41.89;;
60031;Laerm;45901;47.600;9.890;2023-08-06T01:39:31;40.79;37.70;45.01;;
60031;Laerm;45901;47.600;9.890;2023-08-06T01:41:59;40.00;37.70;41.82;;
60031;Laerm;45901;47.600;9.890;2023-08-06T01:44:26;40.10;37.12;48.60;;
60031;Laerm;45901;47.600;9.890;2023-08-06T01:46:53;40.02;37.52;41.68;;
60031;Laerm;45901;47.600;9.890;2023-08-06T01:49:19;39.95;37.70;41.75;;
60031;Laerm;45901;47.600;9.890;2023-08-06T01:51:46;39.92;37.32;41.61;;
60031;Laerm;45901;47.600;9.890;2023-08-06T01:54:15;39.94;37.32;41.82;;
60031;Laerm;45901;47.600;9.890;2023-08-06T01:56:42;39.93;37.32;41.96;;
60031;Laerm;45901;47.600;9.890;2023-08-06T01:59:08;39.95;37.32;44.43;;
60031;Laerm;45901;47.600;9.890;2023-08-06T02:01:35;40.41;37.52;49.10;;
60031;Laerm;45901;47.600;9.890;2023-08-06T02:04:02;39.94;36.69;41.96;;
60031;Laerm;45901;47.600;9.890;2023-08-06T02:06:29;40.11;37.88;45.60;;
60031;Laerm;45901;47.600;9.890;2023-08-06T02:08:57;40.02;37.52;43.39;;
60031;Laerm;45901;47.600;9.890;2023-08-06T02:11:25;39.93;37.32;41.82;;
60031;Laerm;45901;47.600;9.890;2023-08-06T02:13:52;39.94;37.52;41.82;;
60031;Laerm;45901;47.600;9.890;2023-08-06T02:16:20;39.97;37.32;45.36;;
60031;Laerm;45901;47.600;9.890;2023-08-06T02:18:47;39.92;37.12;41.68;;
60031;Laerm;45901;47.600;9.890;2023-08-06T02:21:14;39.93;37.70;41.89;;
60031;Laerm;45901;47.600;9.890;2023-08-06T02:23:41;39.95;37.52;41.82;;
60031;Laerm;45901;47.600;9.890;2023-08-06T02:26:08;39.92;37.70;41.89;;
60031;Laerm;45901;47.600;9.890;2023-08-06T02:28:37;39.93;37.12;41.96;;
60031;Laerm;45901;47.600;9.890;2023-08-06T02:31:03;40.04;37.70;46.52;;
60031;Laerm;45901;47.600;9.890;2023-08-06T02:33:32;39.92;37.52;41.75;;
60031;Laerm;45901;47.600;9.890;2023-08-06T02:36:00;39.94;36.69;41.75;;
60031;Laerm;45901;47.600;9.890;2023-08-06T02:38:27;39.90;37.32;41.75;;
60031;Laerm;45901;47.600;9.890;2023-08-06T02:40:54;39.86;37.12;41.82;;
60031;Laerm;45901;47.600;9.890;2023-08-06T02:43:21;39.84;37.52;41.68;;
60031;Laerm;45901;47.600;9.890;2023-08-06T02:45:50;40.01;37.32;49.24;;
60031;Laerm;45901;47.600;9.890;2023-08-06T02:48:16;39.87;37.12;42.29;;
60031;Laerm;45901;47.600;9.890;2023-08-06T02:50:43;39.83;36.20;41.89;;
60031;Laerm;45901;47.600;9.890;2023-08-06T02:53:10;39.92;36.91;42.41;;
60031;Laerm;45901;47.600;9.890;2023-08-06T02:55:37;39.84;37.32;42.03;;
60031;Laerm;45901;47.600;9.890;2023-08-06T02:58:04;39.89;37.12;41.89;;
60031;Laerm;45901;47.600;9.890;2023-08-06T03:00:31;40.55;36.69;51.27;;
60031;Laerm;45901;47.600;9.890;2023-08-06T03:03:00;39.82;37.32;41.75;;
60031;Laerm;45901;47.600;9.890;2023-08-06T03:05:31;39.82;36.69;41.75;;
60031;Laerm;45901;47.600;9.890;2023-08-06T03:07:58;39.89;36.91;43.04;;
60031;Laerm;45901;47.600;9.890;2023-08-06T03:10:25;39.84;37.12;41.88;;
60031;Laerm;45901;47.600;9.890;2023-08-06T03:12:52;39.84;37.12;41.61;;
60031;Laerm;45901;47.600;9.890;2023-08-06T03:15:19;39.92;37.52;46.78;;
60031;Laerm;45901;47.600;9.890;2023-08-06T03:17:46;40.21;37.12;42.53;;
60031;Laerm;45901;47.600;9.890;2023-08-06T03:20:14;40.87;38.21;42.88;;
60031;Laerm;45901;47.600;9.890;2023-08-06T03:22:41;40.46;38.05;42.29;;
60031;Laerm;45901;47.600;9.890;2023-08-06T03:25:08;40.17;37.52;41.82;;
60031;Laerm;45901;47.600;9.890;2023-08-06T03:27:35;39.98;37.32;41.89;;
60031;Laerm;45901;47.600;9.890;2023-08-06T03:30:03;40.00;36.91;48.81;;
60031;Laerm;45901;47.600;9.890;2023-08-06T03:32:30;39.70;36.69;41.61;;
60031;Laerm;45901;47.600;9.890;2023-08-06T03:34:56;39.71;37.12;41.82;;
60031;Laerm;45901;47.600;9.890;2023-08-06T03:37:25;39.69;37.12;41.82;;
60031;Laerm;45901;47.600;9.890;2023-08-06T03:39:52;39.69;37.12;41.53;;
60031;Laerm;45901;47.600;9.890;2023-08-06T03:42:19;39.67;36.91;41.53;;
60031;Laerm;45901;47.600;9.890;2023-08-06T03:44:45;39.81;36.69;46.66;;
60031;Laerm;45901;47.600;9.890;2023-08-06T03:47:13;39.77;35.94;43.54;;
60031;Laerm;45901;47.600;9.890;2023-08-06T03:49:40;39.69;36.69;41.96;;
60031;Laerm;45901;47.600;9.890;2023-08-06T03:52:07;40.07;37.32;47.61;;
60031;Laerm;45901;47.600;9.890;2023-08-06T03:54:35;39.81;36.98;42.53;;
60031;Laerm;45901;47.600;9.890;2023-08-06T03:57:03;39.65;37.12;41.46;;
60031;Laerm;45901;47.600;9.890;2023-08-06T03:59:30;40.04;36.45;48.57;;
60031;Laerm;45901;47.600;9.890;2023-08-06T04:01:57;39.99;37.32;48.16;;
60031;Laerm;45901;47.600;9.890;2023-08-06T04:04:24;40.23;37.12;46.48;;
60031;Laerm;45901;47.600;9.890;2023-08-06T04:06:51;39.64;37.12;41.68;;
60031;Laerm;45901;47.600;9.890;2023-08-06T04:09:18;39.71;36.91;41.96;;
60031;Laerm;45901;47.600;9.890;2023-08-06T04:11:46;39.77;36.91;44.15;;
60031;Laerm;45901;47.600;9.890;2023-08-06T04:14:13;39.72;37.32;51.35;;
60031;Laerm;45901;47.600;9.890;2023-08-06T04:16:40;39.68;37.12;45.27;;
60031;Laerm;45901;47.600;9.890;2023-08-06T04:19:06;39.62;37.12;41.89;;
60031;Laerm;45901;47.600;9.890;2023-08-06T04:21:33;39.59;36.91;41.75;;
60031;Laerm;45901;47.600;9.890;2023-08-06T04:24:00;39.66;36.69;41.68;;
60031;Laerm;45901;47.600;9.890;2023-08-06T04:26:27;39.71;37.12;46.02;;
60031;Laerm;45901;47.600;9.890;2023-08-06T04:28:56;39.59;37.12;41.53;;
60031;Laerm;45901;47.600;9.890;2023-08-06T04:31:22;39.75;37.32;47.35;;
60031;Laerm;45901;47.600;9.890;2023-08-06T04:33:49;39.72;37.12;42.59;;
60031;Laerm;45901;47.600;9.890;2023-08-06T04:36:16;39.58;36.91;41.61;;
60031;Laerm;45901;47.600;9.890;2023-08-06T04:38:43;39.60;36.91;41.61;;
60031;Laerm;45901;47.600;9.890;2023-08-06T04:41:13;39.84;37.32;50.75;;
60031;Laerm;45901;47.600;9.890;2023-08-06T04:43:39;39.67;36.91;55.94;;
60031;Laerm;45901;47.600;9.890;2023-08-06T04:46:08;39.87;36.69;49.39;;
60031;Laerm;45901;47.600;9.890;2023-08-06T04:48:35;39.81;37.12;45.48;;
60031;Laerm;45901;47.600;9.890;2023-08-06T04:51:02;39.60;36.91;43.29;;
60031;Laerm;45901;47.600;9.890;2023-08-06T04:53:28;39.64;36.91;45.66;;
60031;Laerm;45901;47.600;9.890;2023-08-06T04:55:55;39.60;37.12;42.22;;
60031;Laerm;45901;47.600;9.890;2023-08-06T04:58:22;39.76;36.91;47.34;;
60031;Laerm;45901;47.600;9.890;2023-08-06T05:00:49;40.81;37.12;53.26;;
60031;Laerm;45901;47.600;9.890;2023-08-06T05:03:18;39.72;36.69;45.45;;
60031;Laerm;45901;47.600;9.890;2023-08-06T05:05:46;39.77;36.91;42.53;;
60031;Laerm;45901;47.600;9.890;2023-08-06T05:08:14;39.81;37.32;43.99;;
60031;Laerm;45901;47.600;9.890;2023-08-06T05:10:43;39.78;36.69;41.96;;
60031;Laerm;45901;47.600;9.890;2023-08-06T05:13:10;40.24;36.20;45.75;;
60031;Laerm;45901;47.600;9.890;2023-08-06T05:15:37;40.03;37.12;48.32;;
60031;Laerm;45901;47.600;9.890;2023-08-06T05:18:05;39.73;37.32;43.39;;
60031;Laerm;45901;47.600;9.890;2023-08-06T05:20:36;39.87;36.69;47.12;;
60031;Laerm;45901;47.600;9.890;2023-08-06T05:23:03;40.07;37.52;44.76;;
60031;Laerm;45901;47.600;9.890;2023-08-06T05:25:30;39.85;37.12;46.87;;
60031;Laerm;45901;47.600;9.890;2023-08-06T05:27:57;39.79;37.12;43.90;;
60031;Laerm;45901;47.600;9.890;2023-08-06T05:30:25;39.94;36.91;48.95;;
60031;Laerm;45901;47.600;9.890;2023-08-06T05:32:52;39.69;37.12;44.43;;
60031;Laerm;45901;47.600;9.890;2023-08-06T05:35:19;39.66;36.45;42.65;;
60031;Laerm;45901;47.600;9.890;2023-08-06T05:37:47;39.78;36.91;42.22;;
60031;Laerm;45901;47.600;9.890;2023-08-06T05:40:15;39.79;37.12;42.09;;
60031;Laerm;45901;47.600;9.890;2023-08-06T05:42:41;39.78;36.91;42.09;;
60031;Laerm;45901;47.600;9.890;2023-08-06T05:45:09;39.90;36.45;51.03;;
60031;Laerm;45901;47.600;9.890;2023-08-06T05:47:36;39.84;36.91;42.35;;
60031;Laerm;45901;47.600;9.890;2023-08-06T05:50:04;43.52;38.05;52.79;;
60031;Laerm;45901;47.600;9.890;2023-08-06T05:52:31;42.57;39.46;50.53;;
60031;Laerm;45901;47.600;9.890;2023-08-06T05:55:00;43.38;38.67;52.33;;
60031;Laerm;45901;47.600;9.890;2023-08-06T05:57:27;40.74;38.21;45.33;;
60031;Laerm;45901;47.600;9.890;2023-08-06T05:59:53;42.83;39.34;53.88;;
60031;Laerm;45901;47.600;9.890;2023-08-06T06:02:20;42.49;39.46;49.63;;
60031;Laerm;45901;47.600;9.890;2023-08-06T06:04:48;44.82;40.43;55.37;;
60031;Laerm;45901;47.600;9.890;2023-08-06T06:07:15;42.55;39.81;50.06;;
60031;Laerm;45901;47.600;9.890;2023-08-06T06:09:42;42.07;39.70;56.35;;
60031;Laerm;45901;47.600;9.890;2023-08-06T06:12:10;42.43;39.46;49.78;;
60031;Laerm;45901;47.600;9.890;2023-08-06T06:14:37;40.91;37.88;46.76;;
60031;Laerm;45901;47.600;9.890;2023-08-06T06:17:04;40.12;37.52;42.98;;
60031;Laerm;45901;47.600;9.890;2023-08-06T06:19:31;40.39;37.32;51.91;;
60031;Laerm;45901;47.600;9.890;2023-08-06T06:21:58;40.80;37.88;53.74;;
60031;Laerm;45901;47.600;9.890;2023-08-06T06:24:25;40.24;37.52;45.14;;
60031;Laerm;45901;47.600;9.890;2023-08-06T06:26:52;40.03;37.32;42.41;;
60031;Laerm;45901;47.600;9.890;2023-08-06T06:29:20;40.59;38.05;48.63;;
60031;Laerm;45901;47.600;9.890;2023-08-06T06:31:47;40.90;38.37;46.20;;
60031;Laerm;45901;47.600;9.890;2023-08-06T06:34:14;41.90;39.21;49.04;;
60031;Laerm;45901;47.600;9.890;2023-08-06T06:36:41;40.76;38.21;44.11;;
60031;Laerm;45901;47.600;9.890;2023-08-06T06:39:08;41.03;38.81;52.04;;
60031;Laerm;45901;47.600;9.890;2023-08-06T06:41:35;41.62;39.34;46.48;;
60031;Laerm;45901;47.600;9.890;2023-08-06T06:44:02;41.42;39.21;47.26;;
60031;Laerm;45901;47.600;9.890;2023-08-06T06:46:30;40.97;38.37;46.50;;
60031;Laerm;45901;47.600;9.890;2023-08-06T06:48:57;40.15;37.70;43.77;;
60031;Laerm;45901;47.600;9.890;2023-08-06T06:51:24;40.19;37.52;44.65;;
60031;Laerm;45901;47.600;9.890;2023-08-06T06:53:50;40.39;38.21;44.87;;
60031;Laerm;45901;47.600;9.890;2023-08-06T06:56:17;40.42;37.52;44.27;;
60031;Laerm;45901;47.600;9.890;2023-08-06T06:58:44;40.44;38.05;44.47;;
60031;Laerm;45901;47.600;9.890;2023-08-06T07:01:12;41.19;37.32;52.77;;
60031;Laerm;45901;47.600;9.890;2023-08-06T07:03:40;40.75;37.52;49.55;;
60031;Laerm;45901;47.600;9.890;2023-08-06T07:06:07;40.31;38.05;42.22;;
60031;Laerm;45901;47.600;9.890;2023-08-06T07:08:34;40.42;37.88;44.69;;
60031;Laerm;45901;47.600;9.890;2023-08-06T07:11:02;40.31;38.05;46.15;;
60031;Laerm;45901;47.600;9.890;2023-08-06T07:13:29;40.56;38.21;43.29;;
60031;Laerm;45901;47.600;9.890;2023-08-06T07:15:56;40.62;37.70;48.03;;
60031;Laerm;45901;47.600;9.890;2023-08-06T07:18:24;40.43;38.05;43.68;;
60031;Laerm;45901;47.600;9.890;2023-08-06T07:20:54;40.20;37.88;42.93;;
60031;Laerm;45901;47.600;9.890;2023-08-06T07:23:22;40.97;37.70;48.40;;
60031;Laerm;45901;47.600;9.890;2023-08-06T07:25:49;40.74;37.32;46.50;;
60031;Laerm;45901;47.600;9.890;2023-08-06T07:28:17;40.73;38.05;44.82;;
60031;Laerm;45901;47.600;9.890;2023-08-06T07:30:45;40.94;38.21;49.03;;
60031;Laerm;45901;47.600;9.890;2023-08-06T07:33:12;41.05;38.37;49.64;;
60031;Laerm;45901;47.600;9.890;2023-08-06T07:35:39;40.26;37.52;49.55;;
60031;Laerm;45901;47.600;9.890;2023-08-06T07:38:07;40.46;37.52;43.86;;
60031;Laerm;45901;47.600;9.890;2023-08-06T07:40:35;40.16;37.12;44.43;;
60031;Laerm;45901;47.600;9.890;2023-08-06T07:43:03;40.29;37.70;45.57;;
60031;Laerm;45901;47.600;9.890;2023-08-06T07:45:33;40.31;37.32;48.42;;
60031;Laerm;45901;47.600;9.890;2023-08-06T07:48:01;41.02;37.53;52.38;;
60031;Laerm;45901;47.600;9.890;2023-08-06T07:50:29;41.31;37.32;46.40;;
60031;Laerm;45901;47.600;9.890;2023-08-06T07:52:56;40.24;37.52;49.34;;
60031;Laerm;45901;47.600;9.890;2023-08-06T07:55:25;41.04;37.12;44.90;;
60031;Laerm;45901;47.600;9.890;2023-08-06T07:57:53;41.67;37.52;47.06;;
60031;Laerm;45901;47.600;9.890;2023-08-06T08:00:20;41.29;37.32;51.09;;
60031;Laerm;45901;47.600;9.890;2023-08-06T08:02:46;41.09;38.21;44.31;;
60031;Laerm;45901;47.600;9.890;2023-08-06T08:05:14;40.57;37.32;48.64;;
60031;Laerm;45901;47.600;9.890;2023-08-06T08:07:42;40.22;37.32;44.83;;
60031;Laerm;45901;47.600;9.890;2023-08-06T08:10:10;40.10;37.32;43.39;;
60031;Laerm;45901;47.600;9.890;2023-08-06T08:12:38;40.67;37.70;45.94;;
60031;Laerm;45901;47.600;9.890;2023-08-06T08:15:06;40.19;37.70;46.25;;
60031;Laerm;45901;47.600;9.890;2023-08-06T08:17:33;42.23;37.52;58.93;;
60031;Laerm;45901;47.600;9.890;2023-08-06T08:20:02;41.53;38.37;55.23;;
60031;Laerm;45901;47.600;9.890;2023-08-06T08:22:29;40.31;37.70;45.48;;
60031;Laerm;45901;47.600;9.890;2023-08-06T08:24:56;39.88;37.12;41.89;;
60031;Laerm;45901;47.600;9.890;2023-08-06T08:27:23;40.26;37.52;44.11;;
60031;Laerm;45901;47.600;9.890;2023-08-06T08:29:51;40.50;37.70;50.42;;
60031;Laerm;45901;47.600;9.890;2023-08-06T08:32:18;39.91;36.91;43.24;;
60031;Laerm;45901;47.600;9.890;2023-08-06T08:34:45;40.23;36.91;42.59;;
60031;Laerm;45901;47.600;9.890;2023-08-06T08:37:13;40.81;37.70;46.97;;
60031;Laerm;45901;47.600;9.890;2023-08-06T08:39:40;44.71;39.46;53.46;;
60031;Laerm;45901;47.600;9.890;2023-08-06T08:42:07;46.68;41.22;53.14;;
60031;Laerm;45901;47.600;9.890;2023-08-06T08:44:36;44.55;40.03;59.48;;
60031;Laerm;45901;47.600;9.890;2023-08-06T08:47:06;42.11;39.46;51.59;;
60031;Laerm;45901;47.600;9.890;2023-08-06T08:49:36;43.90;40.53;57.10;;
60031;Laerm;45901;47.600;9.890;2023-08-06T08:52:04;43.87;40.03;62.01;;
60031;Laerm;45901;47.600;9.890;2023-08-06T08:54:33;42.13;39.46;49.47;;
60031;Laerm;45901;47.600;9.890;2023-08-06T08:57:01;43.83;39.58;62.66;;
60031;Laerm;45901;47.600;9.890;2023-08-06T08:59:28;43.97;40.23;54.65;;
60031;Laerm;45901;47.600;9.890;2023-08-06T09:01:55;44.68;40.62;55.86;;
60031;Laerm;45901;47.600;9.890;2023-08-06T09:04:26;43.00;39.46;55.96;;
60031;Laerm;45901;47.600;9.890;2023-08-06T09:06:55;41.11;38.67;45.57;;
60031;Laerm;45901;47.600;9.890;2023-08-06T09:09:28;40.51;37.52;45.20;;
60031;Laerm;45901;47.600;9.890;2023-08-06T09:12:01;40.40;37.88;45.66;;
60031;Laerm;45901;47.600;9.890;2023-08-06T09:14:28;40.73;37.70;53.00;;
60031;Laerm;45901;47.600;9.890;2023-08-06T09:16:56;40.73;38.05;44.97;;
60031;Laerm;45901;47.600;9.890;2023-08-06T09:19:27;40.73;38.37;45.75;;
60031;Laerm;45901;47.600;9.890;2023-08-06T09:21:56;41.76;38.52;49.03;;
60031;Laerm;45901;47.600;9.890;2023-08-06T09:24:23;41.49;38.67;48.23;;
60031;Laerm;45901;47.600;9.890;2023-08-06T09:26:51;43.08;38.95;53.78;;
60031;Laerm;45901;47.600;9.890;2023-08-06T09:29:20;45.48;41.14;53.48;;
60031;Laerm;45901;47.600;9.890;2023-08-06T09:31:48;44.11;41.14;52.25;;
60031;Laerm;45901;47.600;9.890;2023-08-06T09:34:18;42.28;39.08;51.84;;
60031;Laerm;45901;47.600;9.890;2023-08-06T09:36:48;41.41;38.81;50.28;;
60031;Laerm;45901;47.600;9.890;2023-08-06T09:39:17;40.93;38.67;45.42;;
60031;Laerm;45901;47.600;9.890;2023-08-06T09:41:46;41.60;39.08;52.32;;
60031;Laerm;45901;47.600;9.890;2023-08-06T09:44:18;41.38;38.81;45.60;;
60031;Laerm;45901;47.600;9.890;2023-08-06T09:46:48;42.10;39.70;48.67;;
60031;Laerm;45901;47.600;9.890;2023-08-06T09:49:18;43.17;39.70;51.36;;
60031;Laerm;45901;47.600;9.890;2023-08-06T09:51:47;42.41;39.46;49.65;;
60031;Laerm;45901;47.600;9.890;2023-08-06T09:54:17;42.27;39.34;50.11;;
60031;Laerm;45901;47.600;9.890;2023-08-06T09:56:44;40.89;38.37;45.33;;
60031;Laerm;45901;47.600;9.890;2023-08-06T09:59:12;40.85;38.21;50.14;;
60031;Laerm;45901;47.600;9.890;2023-08-06T10:01:40;41.17;38.21;50.10;;
60031;Laerm;45901;47.600;9.890;2023-08-06T10:04:07;41.29;38.67;47.76;;
60031;Laerm;45901;47.600;9.890;2023-08-06T10:06:35;41.79;39.21;48.83;;
60031;Laerm;45901;47.600;9.890;2023-08-06T10:09:04;41.70;39.08;47.59;;
60031;Laerm;45901;47.600;9.890;2023-08-06T10:11:32;41.14;38.52;46.52;;
60031;Laerm;45901;47.600;9.890;2023-08-06T10:14:06;40.86;38.21;44.54;;
60031;Laerm;45901;47.600;9.890;2023-08-06T10:16:35;40.80;37.52;46.30;;
60031;Laerm;45901;47.600;9.890;2023-08-06T10:19:04;40.51;37.88;44.73;;
60031;Laerm;45901;47.600;9.890;2023-08-06T10:21:32;40.60;37.88;52.24;;
60031;Laerm;45901;47.600;9.890;2023-08-06T10:24:00;41.12;38.67;45.14;;
60031;Laerm;45901;47.600;9.890;2023-08-06T10:26:30;40.70;38.52;45.63;;
60031;Laerm;45901;47.600;9.890;2023-08-06T10:28:58;40.39;38.21;47.30;;
60031;Laerm;45901;47.600;9.890;2023-08-06T10:31:59;41.70;38.52;50.60;;
60031;Laerm;45901;47.600;9.890;2023-08-06T10:34:53;41.29;38.81;46.76;;
60031;Laerm;45901;47.600;9.890;2023-08-06T10:37:21;41.03;38.95;45.48;;
60031;Laerm;45901;47.600;9.890;2023-08-06T10:39:50;41.47;38.21;48.90;;
60031;Laerm;45901;47.600;9.890;2023-08-06T10:42:22;41.20;38.81;46.35;;
60031;Laerm;45901;47.600;9.890;2023-08-06T10:45:18;41.42;38.95;51.82;;
60031;Laerm;45901;47.600;9.890;2023-08-06T10:47:46;40.78;37.88;45.86;;
60031;Laerm;45901;47.600;9.890;2023-08-06T10:50:14;40.60;37.88;45.57;;
60031;Laerm;45901;47.600;9.890;2023-08-06T10:52:43;40.75;38.21;44.51;;
60031;Laerm;45901;47.600;9.890;2023-08-06T10:55:10;40.63;37.88;44.35;;
60031;Laerm;45901;47.600;9.890;2023-08-06T10:57:39;40.58;37.88;43.29;;
60031;Laerm;45901;47.600;9.890;2023-08-06T11:00:08;41.43;38.37;60.49;;
60031;Laerm;45901;47.600;9.890;2023-08-06T11:02:35;41.27;39.08;47.63;;
60031;Laerm;45901;47.600;9.890;2023-08-06T11:05:07;41.78;38.95;57.50;;
60031;Laerm;45901;47.600;9.890;2023-08-06T11:07:34;40.74;38.37;52.79;;
60031;Laerm;45901;47.600;9.890;2023-08-06T11:10:04;40.58;38.21;44.39;;
60031;Laerm;45901;47.600;9.890;2023-08-06T11:12:31;40.73;38.21;46.29;;
60031;Laerm;45901;47.600;9.890;2023-08-06T11:15:00;40.99;38.05;47.59;;
60031;Laerm;45901;47.600;9.890;2023-08-06T11:17:29;43.00;38.21;52.32;;
60031;Laerm;45901;47.600;9.890;2023-08-06T11:19:58;45.47;38.52;54.65;;
60031;Laerm;45901;47.600;9.890;2023-08-06T11:22:26;43.85;39.34;51.32;;
60031;Laerm;45901;47.600;9.890;2023-08-06T11:24:53;41.48;38.67;54.42;;
60031;Laerm;45901;47.600;9.890;2023-08-06T11:27:20;44.08;40.03;52.30;;
60031;Laerm;45901;47.600;9.890;2023-08-06T11:29:47;41.59;38.37;50.23;;
60031;Laerm;45901;47.600;9.890;2023-08-06T11:32:16;40.51;38.37;47.68;;
60031;Laerm;45901;47.600;9.890;2023-08-06T11:34:43;41.28;39.34;51.14;;
60031;Laerm;45901;47.600;9.890;2023-08-06T11:37:10;42.10;38.81;49.98;;
60031;Laerm;45901;47.600;9.890;2023-08-06T11:39:39;40.92;38.52;45.07;;
60031;Laerm;45901;47.600;9.890;2023-08-06T11:42:12;40.91;38.74;55.43;;
60031;Laerm;45901;47.600;9.890;2023-08-06T11:44:41;41.70;38.37;47.76;;
60031;Laerm;45901;47.600;9.890;2023-08-06T11:47:14;41.92;38.60;51.55;;
60031;Laerm;45901;47.600;9.890;2023-08-06T11:49:44;40.41;38.21;46.30;;
60031;Laerm;45901;47.600;9.890;2023-08-06T11:52:17;40.74;38.18;45.34;;
60031;Laerm;45901;47.600;9.890;2023-08-06T11:55:00;40.73;38.05;47.58;;
60031;Laerm;45901;47.600;9.890;2023-08-06T11:57:29;40.83;37.70;45.62;;
60031;Laerm;45901;47.600;9.890;2023-08-06T12:00:01;40.67;37.70;48.49;;
60031;Laerm;45901;47.600;9.890;2023-08-06T12:02:32;41.48;37.70;54.53;;
60031;Laerm;45901;47.600;9.890;2023-08-06T12:05:10;39.99;37.52;44.62;;
60031;Laerm;45901;47.600;9.890;2023-08-06T12:07:39;40.05;37.32;43.49;;
60031;Laerm;45901;47.600;9.890;2023-08-06T12:10:06;40.20;37.70;47.37;;
60031;Laerm;45901;47.600;9.890;2023-08-06T12:12:34;40.29;37.32;44.39;;
60031;Laerm;45901;47.600;9.890;2023-08-06T12:15:01;40.67;37.52;46.20;;
60031;Laerm;45901;47.600;9.890;2023-08-06T12:17:28;40.59;37.88;42.88;;
60031;Laerm;45901;47.600;9.890;2023-08-06T12:19:55;40.27;37.70;43.24;;
60031;Laerm;45901;47.600;9.890;2023-08-06T12:22:24;40.61;38.05;49.47;;
60031;Laerm;45901;47.600;9.890;2023-08-06T12:24:51;40.93;37.88;44.72;;
60031;Laerm;45901;47.600;9.890;2023-08-06T12:27:18;40.88;37.70;45.86;;
60031;Laerm;45901;47.600;9.890;2023-08-06T12:29:47;40.78;37.88;46.73;;
60031;Laerm;45901;47.600;9.890;2023-08-06T12:32:15;40.21;38.05;42.09;;
60031;Laerm;45901;47.600;9.890;2023-08-06T12:34:43;40.43;38.05;45.83;;
60031;Laerm;45901;47.600;9.890;2023-08-06T12:37:13;40.38;37.70;42.71;;
60031;Laerm;45901;47.600;9.890;2023-08-06T12:39:42;40.82;38.21;44.69;;
60031;Laerm;45901;47.600;9.890;2023-08-06T12:42:09;40.74;38.21;44.19;;
60031;Laerm;45901;47.600;9.890;2023-08-06T12:44:37;40.56;37.12;48.10;;
60031;Laerm;45901;47.600;9.890;2023-08-06T12:47:04;40.64;37.88;49.45;;
60031;Laerm;45901;47.600;9.890;2023-08-06T12:49:31;40.48;37.70;50.53;;
60031;Laerm;45901;47.600;9.890;2023-08-06T12:51:58;40.58;37.70;47.59;;
60031;Laerm;45901;47.600;9.890;2023-08-06T12:54:26;40.63;37.52;45.60;;
60031;Laerm;45901;47.600;9.890;2023-08-06T12:56:54;40.31;37.88;43.46;;
60031;Laerm;45901;47.600;9.890;2023-08-06T12:59:22;40.34;37.70;47.98;;
60031;Laerm;45901;47.600;9.890;2023-08-06T13:01:49;40.86;37.88;51.79;;
60031;Laerm;45901;47.600;9.890;2023-08-06T13:04:16;40.04;37.88;41.82;;
60031;Laerm;45901;47.600;9.890;2023-08-06T13:06:43;40.55;38.05;46.52;;
60031;Laerm;45901;47.600;9.890;2023-08-06T13:09:10;40.62;37.70;44.03;;
60031;Laerm;45901;47.600;9.890;2023-08-06T13:11:38;40.40;37.88;44.47;;
60031;Laerm;45901;47.600;9.890;2023-08-06T13:14:11;40.59;37.52;53.62;;
60031;Laerm;45901;47.600;9.890;2023-08-06T13:16:42;40.33;37.88;45.57;;
60031;Laerm;45901;47.600;9.890;2023-08-06T13:19:11;40.78;38.37;46.73;;
60031;Laerm;45901;47.600;9.890;2023-08-06T13:22:02;41.01;38.21;49.20;;
60031;Laerm;45901;47.600;9.890;2023-08-06T13:24:31;40.27;37.52;50.28;;
60031;Laerm;45901;47.600;9.890;2023-08-06T13:26:58;40.40;37.88;44.07;;
60031;Laerm;45901;47.600;9.890;2023-08-06T13:29:27;40.11;37.70;46.69;;
60031;Laerm;45901;47.600;9.890;2023-08-06T13:31:54;40.13;37.12;42.88;;
60031;Laerm;45901;47.600;9.890;2023-08-06T13:34:21;40.27;38.05;43.99;;
60031;Laerm;45901;47.600;9.890;2023-08-06T13:36:48;40.32;37.88;42.59;;
60031;Laerm;45901;47.600;9.890;2023-08-06T13:39:15;40.53;37.70;45.86;;
60031;Laerm;45901;47.600;9.890;2023-08-06T13:41:44;41.80;37.88;52.44;;
60031;Laerm;45901;47.600;9.890;2023-08-06T13:44:11;43.23;39.34;53.21;;
60031;Laerm;45901;47.600;9.890;2023-08-06T13:46:42;41.31;38.52;47.54;;
60031;Laerm;45901;47.600;9.890;2023-08-06T13:49:09;40.86;38.21;45.91;;